createdAt,value
2022-11-10T00:01:14.887Z,99659.97
2022-11-10T00:03:42.031Z,99658.69
2022-11-10T00:06:12.149Z,99664.91
2022-11-10T00:08:40.209Z,99669.25
2022-11-10T00:11:10.415Z,99668.13
2022-11-10T00:14:01.706Z,99669.56
2022-11-10T00:16:48.091Z,99666.13
2022-11-10T00:19:23.740Z,99685.25
2022-11-10T00:21:50.907Z,99688.25
2022-11-10T00:24:17.896Z,99695.41
2022-11-10T00:26:46.051Z,99699.19
2022-11-10T00:29:14.540Z,99693.09
2022-11-10T00:31:44.090Z,99685.50
2022-11-10T00:34:17.804Z,99693.66
2022-11-10T00:36:46.772Z,99692.91
2022-11-10T00:39:14.970Z,99699.13
2022-11-10T00:41:42.625Z,99696.69
2022-11-10T00:44:11.628Z,99700.34
2022-11-10T00:46:44.790Z,99710.22
2022-11-10T00:49:19.086Z,99706.56
2022-11-10T00:52:02.597Z,99706.41
2022-11-10T00:54:35.575Z,99692.09
2022-11-10T00:57:02.569Z,99694.53
2022-11-10T00:59:29.592Z,99700.53
2022-11-10T01:01:56.572Z,99706.09
2022-11-10T01:04:25.625Z,99708.72
2022-11-10T01:06:53.202Z,99708.72
2022-11-10T01:09:23.214Z,99713.06
2022-11-10T01:11:56.336Z,99716.72
2022-11-10T01:14:40.504Z,99713.00
2022-11-10T01:17:08.411Z,99719.31
2022-11-10T01:19:38.621Z,99718.41
2022-11-10T01:22:06.826Z,99713.13
2022-11-10T01:24:33.982Z,99707.09
2022-11-10T01:27:00.960Z,99718.66
2022-11-10T01:29:31.930Z,99719.53
2022-11-10T01:32:05.145Z,99708.78
2022-11-10T01:34:39.455Z,99717.88
2022-11-10T01:37:17.102Z,99721.06
2022-11-10T01:39:47.078Z,99716.47
2022-11-10T01:42:15.250Z,99719.19
2022-11-10T01:45:35.185Z,99719.19
2022-11-10T01:48:06.991Z,99727.97
2022-11-10T01:50:40.312Z,99727.72
2022-11-10T01:53:25.346Z,99720.00
2022-11-10T01:56:04.551Z,99724.72
2022-11-10T01:59:10.260Z,99733.19
2022-11-10T02:01:37.414Z,99730.03
2022-11-10T02:04:17.076Z,99729.16
2022-11-10T02:06:49.407Z,99732.59
2022-11-10T02:09:22.685Z,99734.31
2022-11-10T02:11:53.901Z,99734.25
2022-11-10T02:14:54.906Z,99734.78
2022-11-10T02:18:06.700Z,99740.16
2022-11-10T02:21:23.326Z,99747.22
2022-11-10T02:23:54.593Z,99751.16
2022-11-10T02:27:22.004Z,99748.50
2022-11-10T02:30:03.964Z,99755.81
2022-11-10T02:32:33.089Z,99765.50
2022-11-10T02:35:05.733Z,99761.00
2022-11-10T02:37:48.053Z,99751.72
2022-11-10T02:40:15.092Z,99766.59
2022-11-10T02:42:52.740Z,99774.38
2022-11-10T02:45:20.840Z,99773.31
2022-11-10T02:47:47.968Z,99766.66
2022-11-10T02:50:15.113Z,99764.50
2022-11-10T02:52:42.150Z,99775.81
2022-11-10T02:55:10.339Z,99785.47
2022-11-10T02:58:02.565Z,99779.81
2022-11-10T03:00:29.535Z,99778.56
2022-11-10T03:03:05.436Z,99782.03
2022-11-10T03:05:33.533Z,99776.78
2022-11-10T03:08:03.068Z,99780.13
2022-11-10T03:10:32.289Z,99794.13
2022-11-10T03:13:06.126Z,99785.00
2022-11-10T03:15:35.658Z,99788.47
2022-11-10T03:18:05.829Z,99799.06
2022-11-10T03:20:33.891Z,99810.25
2022-11-10T03:23:06.331Z,99813.22
2022-11-10T03:25:37.611Z,99813.44
2022-11-10T03:28:11.388Z,99815.94
2022-11-10T03:30:40.471Z,99814.47
2022-11-10T03:33:14.435Z,99825.72
2022-11-10T03:35:41.514Z,99817.47
2022-11-10T03:38:36.074Z,99816.28
2022-11-10T03:41:20.234Z,99823.25
2022-11-10T03:43:49.963Z,99829.09
2022-11-10T03:46:19.114Z,99819.63
2022-11-10T03:48:52.999Z,99831.06
2022-11-10T03:51:24.194Z,99830.03
2022-11-10T03:53:56.295Z,99829.25
2022-11-10T03:56:35.478Z,99839.53
2022-11-10T03:59:03.713Z,99839.63
2022-11-10T04:01:30.767Z,99834.34
2022-11-10T04:03:58.850Z,99845.75
2022-11-10T04:06:44.530Z,99837.94
2022-11-10T04:09:11.722Z,99838.50
2022-11-10T04:11:57.014Z,99832.38
2022-11-10T04:14:48.389Z,99830.34
2022-11-10T04:17:22.374Z,99850.16
2022-11-10T04:19:55.295Z,99857.31
2022-11-10T04:22:42.980Z,99858.06
2022-11-10T04:25:10.117Z,99859.94
2022-11-10T04:27:39.344Z,99868.19
2022-11-10T04:30:09.372Z,99860.72
2022-11-10T04:32:45.606Z,99866.59
2022-11-10T04:35:14.807Z,99869.16
2022-11-10T04:37:42.905Z,99874.34
2022-11-10T04:40:11.435Z,99873.34
2022-11-10T04:42:40.400Z,99868.91
2022-11-10T04:45:08.646Z,99866.41
2022-11-10T04:47:36.646Z,99868.72
2022-11-10T04:50:13.193Z,99873.00
2022-11-10T04:52:42.215Z,99881.97
2022-11-10T04:55:44.814Z,99877.41
2022-11-10T04:58:12.725Z,99872.78
2022-11-10T05:00:52.029Z,99879.81
2022-11-10T05:03:56.850Z,99888.50
2022-11-10T05:06:54.262Z,99890.09
2022-11-10T05:09:36.827Z,99885.16
2022-11-10T05:12:39.904Z,99893.78
2022-11-10T05:15:31.214Z,99892.59
2022-11-10T05:18:17.886Z,99891.00
2022-11-10T05:21:42.924Z,99904.25
2022-11-10T05:27:31.318Z,99902.22
2022-11-10T05:30:00.526Z,99904.72
2022-11-10T05:32:37.277Z,99919.97
2022-11-10T05:35:05.662Z,99920.06
2022-11-10T05:37:33.902Z,99921.78
2022-11-10T05:40:01.058Z,99930.44
2022-11-10T05:42:28.100Z,99933.09
2022-11-10T05:44:55.148Z,99937.84
2022-11-10T05:47:36.233Z,99937.75
2022-11-10T05:50:07.021Z,99948.44
2022-11-10T05:52:58.312Z,99942.75
2022-11-10T05:55:45.433Z,99946.47
2022-11-10T05:59:07.321Z,99951.09
2022-11-10T06:01:34.413Z,99947.25
2022-11-10T06:04:25.690Z,99954.38
2022-11-10T06:06:52.720Z,99965.38
2022-11-10T06:09:41.731Z,99969.13
2022-11-10T06:12:19.922Z,99978.06
2022-11-10T06:15:03.207Z,99987.69
2022-11-10T06:17:30.218Z,99984.13
2022-11-10T06:20:11.879Z,99990.28
2022-11-10T06:23:23.853Z,99994.56
2022-11-10T06:25:57.113Z,99999.63
2022-11-10T06:28:34.559Z,99999.97
2022-11-10T06:31:25.277Z,100008.69
2022-11-10T06:33:59.690Z,100016.56
2022-11-10T06:36:42.033Z,100022.13
2022-11-10T06:39:25.467Z,100021.66
2022-11-10T06:41:54.639Z,100032.03
2022-11-10T06:44:21.635Z,100036.53
2022-11-10T06:46:54.715Z,100039.03
2022-11-10T06:49:28.854Z,100045.00
2022-11-10T06:52:11.650Z,100056.44
2022-11-10T06:55:10.590Z,100060.22
2022-11-10T06:57:47.211Z,100069.06
2022-11-10T07:00:17.529Z,100071.63
2022-11-10T07:03:06.604Z,100075.13
2022-11-10T07:05:36.389Z,100078.41
2022-11-10T07:08:16.779Z,100086.25
2022-11-10T07:10:53.444Z,100093.25
2022-11-10T07:13:24.913Z,100090.50
2022-11-10T07:15:57.373Z,100102.72
2022-11-10T07:18:29.469Z,100096.44
2022-11-10T07:21:02.716Z,100105.81
2022-11-10T07:23:36.930Z,100101.34
2022-11-10T07:26:13.998Z,100100.34
2022-11-10T07:28:43.068Z,100108.13
2022-11-10T07:31:16.192Z,100113.09
2022-11-10T07:34:08.096Z,100115.59
2022-11-10T07:36:38.143Z,100116.38
2022-11-10T07:39:19.379Z,100122.91
2022-11-10T07:41:55.619Z,100136.22
2022-11-10T07:44:24.633Z,100140.41
2022-11-10T07:47:41.396Z,100137.56
2022-11-10T07:50:34.803Z,100145.94
2022-11-10T07:53:11.046Z,100146.09
2022-11-10T07:55:58.006Z,100153.06
2022-11-10T07:58:25.029Z,100157.56
2022-11-10T08:00:52.839Z,100153.63
2022-11-10T08:03:22.384Z,100160.59
2022-11-10T08:05:57.376Z,100165.66
2022-11-10T08:08:30.427Z,100172.97
2022-11-10T08:10:59.283Z,100175.22
2022-11-10T08:13:27.313Z,100173.22
2022-11-10T08:15:59.964Z,100176.88
2022-11-10T08:18:35.311Z,100181.00
2022-11-10T08:21:06.939Z,100189.03
2022-11-10T08:23:41.442Z,100185.31
2022-11-10T08:26:09.660Z,100192.97
2022-11-10T08:28:48.631Z,100192.66
2022-11-10T08:31:17.674Z,100211.31
2022-11-10T08:33:45.007Z,100209.28
2022-11-10T08:36:12.064Z,100210.81
2022-11-10T08:38:39.232Z,100207.34
2022-11-10T08:41:11.344Z,100211.47
2022-11-10T08:43:39.391Z,100215.19
2022-11-10T08:46:07.356Z,100231.56
2022-11-10T08:48:36.582Z,100223.56
2022-11-10T08:51:14.591Z,100237.19
2022-11-10T08:53:45.610Z,100228.09
2022-11-10T08:56:12.988Z,100236.88
2022-11-10T08:58:50.261Z,100245.50
2022-11-10T09:01:20.280Z,100248.66
2022-11-10T09:03:50.311Z,100258.06
2022-11-10T09:06:23.297Z,100269.44
2022-11-10T09:08:50.484Z,100272.78
2022-11-10T09:11:17.665Z,100281.22
2022-11-10T09:13:46.849Z,100293.16
2022-11-10T09:16:14.086Z,100300.06
2022-11-10T09:18:41.078Z,100300.06
2022-11-10T09:21:12.307Z,100298.81
2022-11-10T09:23:41.488Z,100295.50
2022-11-10T09:26:12.739Z,100305.41
2022-11-10T09:29:05.045Z,100309.56
2022-11-10T09:31:31.959Z,100321.06
2022-11-10T09:34:00.074Z,100320.97
2022-11-10T09:36:29.238Z,100315.75
2022-11-10T09:39:08.501Z,100314.75
2022-11-10T09:41:40.769Z,100323.25
2022-11-10T09:44:47.221Z,100321.28
2022-11-10T09:48:01.425Z,100329.69
2022-11-10T09:50:36.767Z,100329.06
2022-11-10T09:53:10.737Z,100342.78
2022-11-10T09:55:51.630Z,100332.06
2022-11-10T09:58:24.212Z,100338.72
2022-11-10T10:01:09.053Z,100337.28
2022-11-10T10:03:40.700Z,100329.13
2022-11-10T10:06:19.165Z,100342.97
2022-11-10T10:09:27.021Z,100333.56
2022-11-10T10:12:26.426Z,100338.28
2022-11-10T10:15:26.980Z,100342.94
2022-11-10T10:18:31.111Z,100348.06
2022-11-10T10:21:31.863Z,100353.88
2022-11-10T10:24:13.938Z,100342.41
2022-11-10T10:26:52.722Z,100340.16
2022-11-10T10:29:46.738Z,100345.50
2022-11-10T10:32:20.078Z,100349.75
2022-11-10T10:34:48.667Z,100351.13
2022-11-10T10:37:32.101Z,100359.91
2022-11-10T10:40:00.147Z,100356.38
2022-11-10T10:42:38.098Z,100358.06
2022-11-10T10:45:50.621Z,100356.63
2022-11-10T10:48:29.318Z,100363.44
2022-11-10T10:50:56.315Z,100358.59
2022-11-10T10:53:25.358Z,100358.16
2022-11-10T10:56:17.882Z,100358.91
2022-11-10T10:58:59.345Z,100360.19
2022-11-10T11:01:34.047Z,100361.31
2022-11-10T11:04:06.134Z,100366.56
2022-11-10T11:06:35.580Z,100351.53
2022-11-10T11:09:18.097Z,100367.25
2022-11-10T11:11:47.148Z,100364.25
2022-11-10T11:14:27.144Z,100370.50
2022-11-10T11:17:18.571Z,100361.16
2022-11-10T11:19:45.870Z,100370.22
2022-11-10T11:23:04.141Z,100369.31
2022-11-10T11:25:38.591Z,100376.38
2022-11-10T11:28:14.979Z,100363.44
2022-11-10T11:31:16.166Z,100367.53
2022-11-10T11:34:22.418Z,100366.94
2022-11-10T11:37:05.311Z,100370.13
2022-11-10T11:40:05.198Z,100365.19
2022-11-10T11:42:59.874Z,100375.78
2022-11-10T11:45:36.748Z,100369.44
2022-11-10T11:48:25.773Z,100363.19
2022-11-10T11:51:12.488Z,100368.84
2022-11-10T11:54:37.148Z,100364.28
2022-11-10T11:57:34.497Z,100367.38
2022-11-10T12:00:14.026Z,100373.56
2022-11-10T12:03:06.806Z,100371.94
2022-11-10T12:05:52.467Z,100374.50
2022-11-10T12:09:01.644Z,100381.47
2022-11-10T12:11:45.057Z,100384.88
2022-11-10T12:14:44.810Z,100383.06
2022-11-10T12:17:35.792Z,100378.03
2022-11-10T12:20:26.796Z,100386.59
2022-11-10T12:23:34.431Z,100381.16
2022-11-10T12:26:08.398Z,100380.31
2022-11-10T12:28:42.952Z,100373.84
2022-11-10T12:31:26.244Z,100379.91
2022-11-10T12:34:22.465Z,100387.16
2022-11-10T12:36:52.157Z,100393.91
2022-11-10T12:39:42.120Z,100401.06
2022-11-10T12:42:18.354Z,100396.81
2022-11-10T12:45:00.046Z,100399.09
2022-11-10T12:47:44.156Z,100397.16
2022-11-10T12:50:27.506Z,100404.50
2022-11-10T12:53:26.838Z,100407.63
2022-11-10T12:56:00.234Z,100409.56
2022-11-10T12:58:29.685Z,100412.53
2022-11-10T13:01:02.997Z,100429.09
2022-11-10T13:03:37.549Z,100437.69
2022-11-10T13:06:07.616Z,100426.22
2022-11-10T13:08:47.410Z,100428.34
2022-11-10T13:11:14.418Z,100432.06
2022-11-10T13:14:08.041Z,100437.13
2022-11-10T13:16:41.672Z,100437.53
2022-11-10T13:19:39.444Z,100441.25
2022-11-10T13:22:10.976Z,100448.22
2022-11-10T13:24:43.434Z,100444.53
2022-11-10T13:27:32.740Z,100451.00
2022-11-10T13:30:01.033Z,100447.34
2022-11-10T13:32:34.966Z,100451.91
2022-11-10T13:35:44.549Z,100462.34
2022-11-10T13:38:39.525Z,100472.63
2022-11-10T13:41:20.791Z,100463.84
2022-11-10T13:43:55.349Z,100469.19
2022-11-10T13:46:34.228Z,100477.75
2022-11-10T13:49:27.090Z,100475.06
2022-11-10T13:52:22.220Z,100475.84
2022-11-10T13:55:24.332Z,100472.63
2022-11-10T13:58:07.752Z,100487.22
2022-11-10T14:00:36.601Z,100495.59
2022-11-10T14:03:06.950Z,100494.59
2022-11-10T14:05:38.888Z,100496.94
2022-11-10T14:08:25.360Z,100501.34
2022-11-10T14:11:00.413Z,100507.56
2022-11-10T14:13:39.531Z,100512.44
2022-11-10T14:16:26.887Z,100512.66
2022-11-10T14:19:33.241Z,100514.38
2022-11-10T14:22:07.818Z,100520.25
2022-11-10T14:24:53.075Z,100514.94
2022-11-10T14:27:28.527Z,100524.41
2022-11-10T14:30:11.277Z,100526.47
2022-11-10T14:32:40.449Z,100522.78
2022-11-10T14:35:18.991Z,100521.94
2022-11-10T14:37:57.413Z,100531.97
2022-11-10T14:40:24.527Z,100529.50
2022-11-10T14:42:53.717Z,100539.56
2022-11-10T14:45:29.425Z,100540.31
2022-11-10T14:48:04.262Z,100528.56
2022-11-10T14:50:36.275Z,100533.47
2022-11-10T14:53:12.635Z,100547.72
2022-11-10T14:55:44.705Z,100540.69
2022-11-10T14:58:46.455Z,100545.47
2022-11-10T15:02:00.809Z,100553.72
2022-11-10T15:05:26.947Z,100567.44
2022-11-10T15:07:56.945Z,100569.16
2022-11-10T15:10:27.663Z,100571.13
2022-11-10T15:13:06.208Z,100572.00
2022-11-10T15:15:34.235Z,100585.66
2022-11-10T15:18:23.853Z,100580.00
2022-11-10T15:21:19.894Z,100587.06
2022-11-10T15:23:59.450Z,100587.31
2022-11-10T15:26:30.163Z,100592.47
2022-11-10T15:29:02.738Z,100590.88
2022-11-10T15:31:33.722Z,100594.22
2022-11-10T15:34:06.820Z,100601.69
2022-11-10T15:36:39.939Z,100611.00
2022-11-10T15:39:14.226Z,100611.50
2022-11-10T15:41:46.827Z,100613.63
2022-11-10T15:44:32.873Z,100626.91
2022-11-10T15:46:59.974Z,100630.53
2022-11-10T15:49:31.532Z,100640.25
2022-11-10T15:52:06.188Z,100641.91
2022-11-10T15:54:36.781Z,100655.03
2022-11-10T15:57:14.164Z,100658.00
2022-11-10T15:59:42.656Z,100657.94
2022-11-10T16:02:20.150Z,100661.56
2022-11-10T16:04:49.301Z,100665.00
2022-11-10T16:07:18.156Z,100665.28
2022-11-10T16:09:45.372Z,100672.59
2022-11-10T16:12:22.810Z,100668.16
2022-11-10T16:14:53.189Z,100681.50
2022-11-10T16:17:23.266Z,100687.19
2022-11-10T16:19:50.326Z,100685.53
2022-11-10T16:22:19.905Z,100685.28
2022-11-10T16:24:47.216Z,100683.81
2022-11-10T16:27:17.160Z,100693.81
2022-11-10T16:29:44.337Z,100701.19
2022-11-10T16:32:12.566Z,100705.88
2022-11-10T16:34:42.942Z,100708.19
2022-11-10T16:37:12.975Z,100714.41
2022-11-10T16:39:41.152Z,100722.63
2022-11-10T16:42:10.325Z,100727.03
2022-11-10T16:44:42.442Z,100728.97
2022-11-10T16:47:20.862Z,100736.38
2022-11-10T16:49:53.381Z,100737.34
2022-11-10T16:52:21.809Z,100738.88
2022-11-10T16:54:48.968Z,100739.59
2022-11-10T16:57:18.144Z,100756.13
2022-11-10T16:59:46.153Z,100756.53
2022-11-10T17:02:26.400Z,100760.63
2022-11-10T17:04:55.847Z,100768.69
2022-11-10T17:07:26.429Z,100772.25
2022-11-10T17:09:57.752Z,100775.75
2022-11-10T17:12:24.838Z,100779.38
2022-11-10T17:14:52.871Z,100779.56
2022-11-10T17:17:26.728Z,100790.88
2022-11-10T17:20:06.534Z,100793.69
2022-11-10T17:22:36.657Z,100801.59
2022-11-10T17:25:05.562Z,100801.66
2022-11-10T17:27:37.723Z,100804.41
2022-11-10T17:30:05.350Z,100801.91
2022-11-10T17:33:03.053Z,100813.25
2022-11-10T17:35:25.251Z,100814.97
2022-11-10T17:37:55.949Z,100808.84
2022-11-10T17:40:25.361Z,100807.91
2022-11-10T17:42:54.565Z,100805.88
2022-11-10T17:45:31.640Z,100807.50
2022-11-10T17:48:23.412Z,100807.44
2022-11-10T17:50:53.013Z,100810.94
2022-11-10T17:53:29.280Z,100814.28
2022-11-10T17:55:57.982Z,100812.66
2022-11-10T17:58:26.066Z,100804.03
2022-11-10T18:00:56.589Z,100808.31
2022-11-10T18:03:25.482Z,100808.22
2022-11-10T18:05:55.060Z,100806.50
2022-11-10T18:08:22.070Z,100807.34
2022-11-10T18:10:53.712Z,100797.75
2022-11-10T18:13:27.365Z,100803.06
2022-11-10T18:16:07.862Z,100801.25
2022-11-10T18:18:37.258Z,100806.53
2022-11-10T18:21:06.571Z,100800.44
2022-11-10T18:23:34.075Z,100801.41
2022-11-10T18:26:09.110Z,100804.03
2022-11-10T18:28:43.564Z,100807.47
2022-11-10T18:31:13.571Z,100811.13
2022-11-10T18:33:41.761Z,100811.06
2022-11-10T18:36:09.631Z,100818.13
2022-11-10T18:38:38.964Z,100806.72
2022-11-10T18:41:25.915Z,100806.03
2022-11-10T18:43:55.429Z,100813.00
2022-11-10T18:46:30.696Z,100813.72
2022-11-10T18:48:58.419Z,100820.88
2022-11-10T18:51:27.554Z,100816.59
2022-11-10T18:53:59.343Z,100829.69
2022-11-10T18:56:28.889Z,100821.00
2022-11-10T18:58:58.346Z,100835.94
2022-11-10T19:01:42.327Z,100835.00
2022-11-10T19:04:18.601Z,100836.03
2022-11-10T19:06:49.031Z,100832.50
2022-11-10T19:09:16.601Z,100840.63
2022-11-10T19:11:45.376Z,100836.31
2022-11-10T19:14:14.990Z,100842.44
2022-11-10T19:16:44.201Z,100844.38
2022-11-10T19:19:12.810Z,100856.53
2022-11-10T19:21:40.862Z,100859.31
2022-11-10T19:24:28.046Z,100860.09
2022-11-10T19:26:56.545Z,100863.66
2022-11-10T19:29:24.042Z,100868.78
2022-11-10T19:31:51.726Z,100868.09
2022-11-10T19:34:22.195Z,100877.75
2022-11-10T19:36:54.965Z,100877.69
2022-11-10T19:39:23.890Z,100890.03
2022-11-10T19:41:52.587Z,100889.19
2022-11-10T19:44:20.925Z,100886.63
2022-11-10T19:46:47.971Z,100893.78
2022-11-10T19:52:23.649Z,100894.88
2022-11-10T19:54:52.277Z,100897.50
2022-11-10T19:57:19.889Z,100908.91
2022-11-10T19:59:49.280Z,100914.16
2022-11-10T20:02:19.359Z,100917.72
2022-11-10T20:05:09.101Z,100920.28
2022-11-10T20:07:55.094Z,100924.72
2022-11-10T20:10:24.128Z,100912.38
2022-11-10T20:12:51.484Z,100908.91
2022-11-10T20:15:18.842Z,100910.78
2022-11-10T20:17:46.402Z,100902.66
2022-11-10T20:20:14.421Z,100906.16
2022-11-10T20:22:41.867Z,100902.78
2022-11-10T20:25:09.573Z,100908.88
2022-11-10T20:27:36.836Z,100908.91
2022-11-10T20:30:05.955Z,100909.88
2022-11-10T20:32:42.331Z,100921.25
2022-11-10T20:35:18.668Z,100919.56
2022-11-10T20:37:45.976Z,100918.69
2022-11-10T20:40:42.374Z,100931.91
2022-11-10T20:43:02.800Z,100931.00
2022-11-10T20:45:39.314Z,100925.69
2022-11-10T20:48:16.637Z,100929.16
2022-11-10T20:50:44.480Z,100930.88
2022-11-10T20:53:12.013Z,100936.09
2022-11-10T20:55:58.954Z,100934.38
2022-11-10T20:58:26.734Z,100934.38
2022-11-10T21:01:04.505Z,100935.38
2022-11-10T21:03:38.381Z,100944.19
2022-11-10T21:06:08.283Z,100942.31
2022-11-10T21:08:37.829Z,100944.84
2022-11-10T21:11:47.961Z,100945.84
2022-11-10T21:14:44.759Z,100930.06
2022-11-10T21:17:18.680Z,100933.53
2022-11-10T21:19:55.430Z,100930.16
2022-11-10T21:22:28.783Z,100937.09
2022-11-10T21:24:57.968Z,100935.34
2022-11-10T21:27:29.110Z,100946.72
2022-11-10T21:29:58.959Z,100945.97
2022-11-10T21:32:33.459Z,100950.44
2022-11-10T21:35:07.344Z,100939.06
2022-11-10T21:37:35.462Z,100939.13
2022-11-10T21:40:02.519Z,100930.41
2022-11-10T21:42:35.847Z,100927.84
2022-11-10T21:45:04.269Z,100936.66
2022-11-10T21:47:31.240Z,100934.03
2022-11-10T21:50:06.020Z,100942.78
2022-11-10T21:52:43.215Z,100944.56
2022-11-10T21:55:10.988Z,100948.09
2022-11-10T21:57:58.227Z,100949.88
2022-11-10T22:00:26.279Z,100963.97
2022-11-10T22:02:58.773Z,100956.13
2022-11-10T22:05:28.651Z,100953.44
2022-11-10T22:07:56.754Z,100942.88
2022-11-10T22:10:47.343Z,100940.22
2022-11-10T22:13:44.732Z,100941.16
2022-11-10T22:17:02.547Z,100948.19
2022-11-10T22:19:29.822Z,100942.97
2022-11-10T22:22:03.994Z,100934.19
2022-11-10T22:24:37.377Z,100932.47
2022-11-10T22:27:13.682Z,100938.59
2022-11-10T22:29:40.792Z,100931.59
2022-11-10T22:32:10.001Z,100933.31
2022-11-10T22:34:38.175Z,100928.97
2022-11-10T22:37:14.243Z,100927.22
2022-11-10T22:40:05.779Z,100939.44
2022-11-10T22:43:00.240Z,100936.81
2022-11-10T22:45:35.304Z,100936.81
2022-11-10T22:48:27.008Z,100941.19
2022-11-10T22:50:57.695Z,100949.09
2022-11-10T22:53:39.027Z,100949.97
2022-11-10T22:56:06.309Z,100942.09
2022-11-10T22:58:34.390Z,100942.09
2022-11-10T23:01:09.505Z,100942.94
2022-11-10T23:03:38.906Z,100944.66
2022-11-10T23:06:09.123Z,100942.88
2022-11-10T23:08:38.321Z,100941.13
2022-11-10T23:11:12.801Z,100939.41
2022-11-10T23:13:44.022Z,100952.59
2022-11-10T23:16:14.882Z,100953.50
2022-11-10T23:18:45.467Z,100951.78
2022-11-10T23:21:15.412Z,100961.41
2022-11-10T23:23:49.401Z,100965.78
2022-11-10T23:26:23.388Z,100967.53
2022-11-10T23:28:53.661Z,100966.63
2022-11-10T23:31:23.596Z,100973.63
2022-11-10T23:33:55.745Z,100974.50
2022-11-10T23:36:25.061Z,100975.38
2022-11-10T23:38:58.532Z,100970.09
2022-11-10T23:41:31.819Z,100963.16
2022-11-10T23:44:08.823Z,100977.13
2022-11-10T23:46:40.882Z,100971.91
2022-11-10T23:49:07.910Z,100976.28
2022-11-10T23:51:37.117Z,100985.88
2022-11-10T23:54:13.348Z,101000.72
2022-11-10T23:56:46.332Z,101001.50
2022-11-10T23:59:20.330Z,101010.22
